Airfield :
LOGIN :

Register | Disclaimer

   EN    FR    IT 

 










Legend :    VFR   Marginal VFR   IFR   Intensive IFR   Very Intensive IFR
Visi :
Ceiling :
>= 8 km
>= 3000ft
5 to 8 km
1000 to 3000 ft
1500m to 5 km
500 to 1000 ft
800 to 1500m
200 to 500 ft
< 800m
< 200 ft
Symbols :   Thunderstorms  Fog  Heavy snow  Heavy precipitations  Wind > 20 kt
SIGMETs :     Misc.  Thunderstorms  Icing  Turbulence  Mountain Waves  Volcanic Ashes







- Airport Elevation : 776 ft
- IATA code : RMS


ETAR - Ramstein Air Base

CURRENT METAR :
  • 210956Z 25008KT 9999 FEW100 02/01 A3000 RMK AO2A SLP175 T00220006 $

EXPIRED METARs :
  • 210856Z 26007KT 9999 FEW050 01/01 A2997 RMK AO2A SLP165 T00120006 52037 $
  • 210756Z 26008KT 9999 FEW100 00/00 A2994 RMK AO2A SLP155 T00030002 $

TAF TAF ETAR
Valid from the 21 at 10:00 until the 22 at 16:00 UTC


211006Z 2110/2216 26008KT 9999 FEW100 QNH2991INS
BECMG 2121/2122 16008KT 3200 -SN OVC004 620049 QNH2986INS
TEMPO 2202/2204 9000 -FZRA 690002
BECMG 2203/2204 15005KT 9000 -RA OVC010 620109 QNH2981INS
TEMPO 2204/2206 9000 -FZRA 690002
BECMG 2214/2215 VRB05KT 9999 NSW OVC030 620505 QNH2989INS TX05/2208Z TNM01/2117Z
No reported NOTAMs for that airfield.
1 SIGMET reported for the Langen FIR (EDGG) :
 
Severe icing
EDGG SIGMET 1 VALID 210930/211200 EDZF
EDGG LANGEN FIR SEV ICE OBS WI N4922 E01057 - N4838 E00942 - N4808 E00936 - N4742 E00728 - N4742 E00725 - N4843 E00750 - N4922 E01057 4000FT/FL070 MOV SE WKN=



MET'MAP, your aeronautical weather chart ! - Copyright ORBIFLY December 2007 - Disclaimer

ORBIFLY MET'MAP TEAM :

Programming & Development : Alexandra Zaïnal
Concept & Development : Baudouin d'Aumeries
Co-Development & Prog : Marc-Olivier Méhu
Technical & hardware support : Manuel Goepfert

Contact : metmap@orbifly.com




SOURCES & CREDITS :

   NOAA